Thornhill, Canada
Current Conditions -  °F | °C
As of 10:00 AM on Friday 28 Nov 2014 (Local Time) from CYKZ Reporting Station
Scattered Clouds Scattered Clouds  
Wind Chill: 13°   Ceiling: Unl
Heat Index: 23°   Visibility: 15mi
Dew Point: 10°   Wind: 9mph
Humidity: 59%   Direction: 310°NW
Pressure: 30.24"   Gusts: NA
Location:  43.8°N, 79.42°W
Report Text: CYKZ 281500Z 31008KT 15SM FEW025 FEW030 FEW230 SCT250 M05/M12 A3024 RMK CF1SC1CC1CS2 HALO SC TR SLP252
Loading
Personal Weather Stations






























Interactive Weather Map New forecast layout! Learn more

10-Day Weather Forecast

Advertisements
Track Severe Weather on mobile